sensor_id;sensor_type;location;lat;lon;timestamp;P1;durP1;ratioP1;P2;durP2;ratioP2
36839;SDS011;24406;51.640;9.566;2022-07-23T00:02:47;11.27;;;9.70;;
36839;SDS011;24406;51.640;9.566;2022-07-23T00:07:50;12.45;;;10.63;;
36839;SDS011;24406;51.640;9.566;2022-07-23T00:12:51;10.05;;;9.07;;
36839;SDS011;24406;51.640;9.566;2022-07-23T00:17:53;11.10;;;10.07;;
36839;SDS011;24406;51.640;9.566;2022-07-23T00:22:55;12.55;;;10.23;;
36839;SDS011;24406;51.640;9.566;2022-07-23T00:27:57;13.77;;;9.07;;
36839;SDS011;24406;51.640;9.566;2022-07-23T00:32:59;13.13;;;9.90;;
36839;SDS011;24406;51.640;9.566;2022-07-23T00:38:02;13.63;;;10.77;;
36839;SDS011;24406;51.640;9.566;2022-07-23T00:43:05;12.27;;;10.05;;
36839;SDS011;24406;51.640;9.566;2022-07-23T00:48:06;15.27;;;10.52;;
36839;SDS011;24406;51.640;9.566;2022-07-23T00:53:09;10.43;;;9.30;;
36839;SDS011;24406;51.640;9.566;2022-07-23T00:58:12;13.30;;;11.45;;
36839;SDS011;24406;51.640;9.566;2022-07-23T01:03:13;15.70;;;13.43;;
36839;SDS011;24406;51.640;9.566;2022-07-23T01:08:16;13.80;;;11.13;;
36839;SDS011;24406;51.640;9.566;2022-07-23T01:13:18;15.23;;;13.40;;
36839;SDS011;24406;51.640;9.566;2022-07-23T01:18:19;20.10;;;14.23;;
36839;SDS011;24406;51.640;9.566;2022-07-23T01:23:22;13.95;;;12.43;;
36839;SDS011;24406;51.640;9.566;2022-07-23T01:28:28;14.90;;;11.75;;
36839;SDS011;24406;51.640;9.566;2022-07-23T01:33:31;13.80;;;12.18;;
36839;SDS011;24406;51.640;9.566;2022-07-23T01:38:34;12.15;;;10.88;;
36839;SDS011;24406;51.640;9.566;2022-07-23T01:43:35;11.93;;;10.27;;
36839;SDS011;24406;51.640;9.566;2022-07-23T01:48:38;11.93;;;9.95;;
36839;SDS011;24406;51.640;9.566;2022-07-23T01:54:01;14.23;;;10.05;;
36839;SDS011;24406;51.640;9.566;2022-07-23T01:59:03;13.55;;;11.07;;
36839;SDS011;24406;51.640;9.566;2022-07-23T02:04:04;13.73;;;10.40;;
36839;SDS011;24406;51.640;9.566;2022-07-23T02:09:07;11.93;;;9.30;;
36839;SDS011;24406;51.640;9.566;2022-07-23T02:14:09;12.02;;;10.75;;
36839;SDS011;24406;51.640;9.566;2022-07-23T02:19:10;15.10;;;11.07;;
36839;SDS011;24406;51.640;9.566;2022-07-23T02:24:13;13.50;;;12.00;;
36839;SDS011;24406;51.640;9.566;2022-07-23T02:29:15;12.82;;;10.75;;
36839;SDS011;24406;51.640;9.566;2022-07-23T02:34:17;12.88;;;10.60;;
36839;SDS011;24406;51.640;9.566;2022-07-23T02:39:19;13.15;;;11.05;;
36839;SDS011;24406;51.640;9.566;2022-07-23T02:44:22;13.85;;;10.98;;
36839;SDS011;24406;51.640;9.566;2022-07-23T02:49:26;17.80;;;12.80;;
36839;SDS011;24406;51.640;9.566;2022-07-23T02:54:29;13.25;;;11.18;;
36839;SDS011;24406;51.640;9.566;2022-07-23T02:59:30;19.20;;;12.80;;
36839;SDS011;24406;51.640;9.566;2022-07-23T03:04:32;15.95;;;12.18;;
36839;SDS011;24406;51.640;9.566;2022-07-23T03:09:35;17.85;;;12.48;;
36839;SDS011;24406;51.640;9.566;2022-07-23T03:14:36;19.27;;;13.73;;
36839;SDS011;24406;51.640;9.566;2022-07-23T03:19:38;17.00;;;13.38;;
36839;SDS011;24406;51.640;9.566;2022-07-23T03:24:41;17.42;;;13.05;;
36839;SDS011;24406;51.640;9.566;2022-07-23T03:30:01;17.95;;;15.18;;
36839;SDS011;24406;51.640;9.566;2022-07-23T03:35:03;22.67;;;16.67;;
36839;SDS011;24406;51.640;9.566;2022-07-23T03:40:08;17.38;;;15.25;;
36839;SDS011;24406;51.640;9.566;2022-07-23T03:45:10;18.73;;;15.10;;
36839;SDS011;24406;51.640;9.566;2022-07-23T03:50:11;24.90;;;17.23;;
36839;SDS011;24406;51.640;9.566;2022-07-23T03:55:14;20.17;;;16.08;;
36839;SDS011;24406;51.640;9.566;2022-07-23T04:00:16;19.15;;;14.55;;
36839;SDS011;24406;51.640;9.566;2022-07-23T04:05:19;20.02;;;14.75;;
36839;SDS011;24406;51.640;9.566;2022-07-23T04:10:26;21.23;;;15.30;;
36839;SDS011;24406;51.640;9.566;2022-07-23T04:15:27;16.77;;;13.55;;
36839;SDS011;24406;51.640;9.566;2022-07-23T04:20:29;20.98;;;14.88;;
36839;SDS011;24406;51.640;9.566;2022-07-23T04:25:35;23.20;;;16.48;;
36839;SDS011;24406;51.640;9.566;2022-07-23T04:30:39;22.77;;;16.45;;
36839;SDS011;24406;51.640;9.566;2022-07-23T04:35:42;17.85;;;15.63;;
36839;SDS011;24406;51.640;9.566;2022-07-23T04:40:53;19.50;;;15.60;;
36839;SDS011;24406;51.640;9.566;2022-07-23T04:45:55;17.38;;;15.40;;
36839;SDS011;24406;51.640;9.566;2022-07-23T04:50:57;18.85;;;15.82;;
36839;SDS011;24406;51.640;9.566;2022-07-23T04:56:03;19.08;;;14.55;;
36839;SDS011;24406;51.640;9.566;2022-07-23T05:01:06;19.60;;;16.25;;
36839;SDS011;24406;51.640;9.566;2022-07-23T05:06:09;19.13;;;14.85;;
36839;SDS011;24406;51.640;9.566;2022-07-23T05:11:12;17.25;;;14.13;;
36839;SDS011;24406;51.640;9.566;2022-07-23T05:16:13;17.77;;;14.00;;
36839;SDS011;24406;51.640;9.566;2022-07-23T05:21:16;15.98;;;13.70;;
36839;SDS011;24406;51.640;9.566;2022-07-23T05:26:19;21.38;;;16.95;;
36839;SDS011;24406;51.640;9.566;2022-07-23T05:31:20;22.27;;;15.82;;
36839;SDS011;24406;51.640;9.566;2022-07-23T05:36:22;17.70;;;15.07;;
36839;SDS011;24406;51.640;9.566;2022-07-23T05:41:28;16.20;;;14.50;;
36839;SDS011;24406;51.640;9.566;2022-07-23T05:46:30;20.48;;;16.38;;
36839;SDS011;24406;51.640;9.566;2022-07-23T05:51:37;17.40;;;14.30;;
36839;SDS011;24406;51.640;9.566;2022-07-23T05:56:40;16.25;;;14.55;;
36839;SDS011;24406;51.640;9.566;2022-07-23T06:01:41;17.75;;;14.10;;
36839;SDS011;24406;51.640;9.566;2022-07-23T06:06:45;24.15;;;14.75;;
36839;SDS011;24406;51.640;9.566;2022-07-23T06:11:48;17.83;;;15.50;;
36839;SDS011;24406;51.640;9.566;2022-07-23T06:16:50;17.17;;;14.63;;
36839;SDS011;24406;51.640;9.566;2022-07-23T06:21:51;17.40;;;15.50;;
36839;SDS011;24406;51.640;9.566;2022-07-23T06:26:54;18.73;;;16.00;;
36839;SDS011;24406;51.640;9.566;2022-07-23T06:31:55;18.80;;;16.83;;
36839;SDS011;24406;51.640;9.566;2022-07-23T06:36:57;19.25;;;15.73;;
36839;SDS011;24406;51.640;9.566;2022-07-23T06:42:01;15.20;;;13.10;;
36839;SDS011;24406;51.640;9.566;2022-07-23T06:47:23;14.52;;;13.13;;
36839;SDS011;24406;51.640;9.566;2022-07-23T06:52:25;16.55;;;13.00;;
36839;SDS011;24406;51.640;9.566;2022-07-23T06:57:28;14.13;;;12.63;;
36839;SDS011;24406;51.640;9.566;2022-07-23T07:02:29;14.13;;;12.13;;
36839;SDS011;24406;51.640;9.566;2022-07-23T07:07:31;12.57;;;10.57;;
36839;SDS011;24406;51.640;9.566;2022-07-23T07:12:34;12.02;;;9.85;;
36839;SDS011;24406;51.640;9.566;2022-07-23T07:17:35;11.80;;;8.75;;
36839;SDS011;24406;51.640;9.566;2022-07-23T07:22:36;10.45;;;9.35;;
36839;SDS011;24406;51.640;9.566;2022-07-23T07:27:39;11.05;;;9.60;;
36839;SDS011;24406;51.640;9.566;2022-07-23T07:32:41;11.00;;;8.98;;
36839;SDS011;24406;51.640;9.566;2022-07-23T07:37:43;10.02;;;9.02;;
36839;SDS011;24406;51.640;9.566;2022-07-23T07:42:46;11.02;;;9.88;;
36839;SDS011;24406;51.640;9.566;2022-07-23T07:47:47;9.35;;;8.45;;
36839;SDS011;24406;51.640;9.566;2022-07-23T07:52:49;8.60;;;7.00;;
36839;SDS011;24406;51.640;9.566;2022-07-23T07:57:51;7.35;;;5.57;;
36839;SDS011;24406;51.640;9.566;2022-07-23T08:02:53;7.38;;;5.80;;
36839;SDS011;24406;51.640;9.566;2022-07-23T08:07:55;8.52;;;5.03;;
36839;SDS011;24406;51.640;9.566;2022-07-23T08:12:59;7.22;;;5.65;;
36839;SDS011;24406;51.640;9.566;2022-07-23T08:18:01;7.45;;;6.35;;
36839;SDS011;24406;51.640;9.566;2022-07-23T08:23:03;5.72;;;5.15;;
36839;SDS011;24406;51.640;9.566;2022-07-23T08:28:07;9.32;;;7.40;;
36839;SDS011;24406;51.640;9.566;2022-07-23T08:33:10;10.82;;;8.38;;
36839;SDS011;24406;51.640;9.566;2022-07-23T08:38:13;8.75;;;7.93;;
36839;SDS011;24406;51.640;9.566;2022-07-23T08:43:19;9.15;;;6.68;;
36839;SDS011;24406;51.640;9.566;2022-07-23T08:48:21;7.53;;;6.82;;
36839;SDS011;24406;51.640;9.566;2022-07-23T08:53:24;8.13;;;4.75;;
36839;SDS011;24406;51.640;9.566;2022-07-23T08:58:28;10.68;;;5.50;;
36839;SDS011;24406;51.640;9.566;2022-07-23T09:03:30;6.07;;;5.05;;
36839;SDS011;24406;51.640;9.566;2022-07-23T09:08:35;5.40;;;4.60;;
36839;SDS011;24406;51.640;9.566;2022-07-23T09:13:40;8.05;;;5.30;;
36839;SDS011;24406;51.640;9.566;2022-07-23T09:18:44;5.55;;;4.43;;
36839;SDS011;24406;51.640;9.566;2022-07-23T09:23:49;4.05;;;3.63;;
36839;SDS011;24406;51.640;9.566;2022-07-23T09:28:55;4.28;;;3.85;;
36839;SDS011;24406;51.640;9.566;2022-07-23T09:34:05;4.85;;;4.00;;
36839;SDS011;24406;51.640;9.566;2022-07-23T09:39:09;4.40;;;3.42;;
36839;SDS011;24406;51.640;9.566;2022-07-23T09:44:14;4.50;;;3.67;;
36839;SDS011;24406;51.640;9.566;2022-07-23T09:49:18;5.07;;;3.80;;
36839;SDS011;24406;51.640;9.566;2022-07-23T09:54:24;5.50;;;4.07;;
36839;SDS011;24406;51.640;9.566;2022-07-23T09:59:30;5.53;;;3.22;;
36839;SDS011;24406;51.640;9.566;2022-07-23T10:04:34;5.68;;;3.67;;
36839;SDS011;24406;51.640;9.566;2022-07-23T10:09:50;4.75;;;3.22;;
36839;SDS011;24406;51.640;9.566;2022-07-23T10:20:21;5.70;;;3.63;;
36839;SDS011;24406;51.640;9.566;2022-07-23T10:25:24;7.55;;;3.53;;
36839;SDS011;24406;51.640;9.566;2022-07-23T10:30:34;5.05;;;4.03;;
36839;SDS011;24406;51.640;9.566;2022-07-23T10:35:43;9.50;;;3.30;;
36839;SDS011;24406;51.640;9.566;2022-07-23T10:40:52;3.83;;;2.83;;
36839;SDS011;24406;51.640;9.566;2022-07-23T10:45:56;3.88;;;3.00;;
36839;SDS011;24406;51.640;9.566;2022-07-23T10:51:22;3.60;;;3.23;;
36839;SDS011;24406;51.640;9.566;2022-07-23T11:01:52;6.57;;;3.50;;
36839;SDS011;24406;51.640;9.566;2022-07-23T11:07:06;5.55;;;3.17;;
36839;SDS011;24406;51.640;9.566;2022-07-23T11:23:00;3.05;;;2.75;;
36839;SDS011;24406;51.640;9.566;2022-07-23T11:28:08;3.05;;;2.60;;
36839;SDS011;24406;51.640;9.566;2022-07-23T11:33:18;4.88;;;2.75;;
36839;SDS011;24406;51.640;9.566;2022-07-23T11:38:22;4.43;;;3.22;;
36839;SDS011;24406;51.640;9.566;2022-07-23T11:43:24;3.55;;;2.72;;
36839;SDS011;24406;51.640;9.566;2022-07-23T11:48:27;3.92;;;2.42;;
36839;SDS011;24406;51.640;9.566;2022-07-23T11:53:30;7.57;;;2.95;;
36839;SDS011;24406;51.640;9.566;2022-07-23T11:58:33;4.65;;;2.50;;
36839;SDS011;24406;51.640;9.566;2022-07-23T12:03:36;4.60;;;2.50;;
36839;SDS011;24406;51.640;9.566;2022-07-23T12:08:40;2.67;;;2.47;;
36839;SDS011;24406;51.640;9.566;2022-07-23T12:13:42;5.35;;;2.30;;
36839;SDS011;24406;51.640;9.566;2022-07-23T12:18:44;3.00;;;2.53;;
36839;SDS011;24406;51.640;9.566;2022-07-23T12:23:48;6.20;;;2.55;;
36839;SDS011;24406;51.640;9.566;2022-07-23T12:28:51;2.40;;;2.15;;
36839;SDS011;24406;51.640;9.566;2022-07-23T12:33:55;2.83;;;2.50;;
36839;SDS011;24406;51.640;9.566;2022-07-23T12:38:56;4.88;;;2.45;;
36839;SDS011;24406;51.640;9.566;2022-07-23T12:43:59;3.25;;;2.38;;
36839;SDS011;24406;51.640;9.566;2022-07-23T12:49:25;2.92;;;2.63;;
36839;SDS011;24406;51.640;9.566;2022-07-23T12:54:27;5.03;;;2.97;;
36839;SDS011;24406;51.640;9.566;2022-07-23T12:59:30;4.22;;;2.22;;
36839;SDS011;24406;51.640;9.566;2022-07-23T13:04:33;3.72;;;2.30;;
36839;SDS011;24406;51.640;9.566;2022-07-23T13:09:34;5.20;;;2.58;;
36839;SDS011;24406;51.640;9.566;2022-07-23T13:14:36;3.08;;;2.38;;
36839;SDS011;24406;51.640;9.566;2022-07-23T13:19:39;6.10;;;2.28;;
36839;SDS011;24406;51.640;9.566;2022-07-23T13:24:40;2.83;;;2.25;;
36839;SDS011;24406;51.640;9.566;2022-07-23T13:29:41;2.83;;;2.17;;
36839;SDS011;24406;51.640;9.566;2022-07-23T13:34:44;3.22;;;2.53;;
36839;SDS011;24406;51.640;9.566;2022-07-23T13:39:45;3.08;;;2.22;;
36839;SDS011;24406;51.640;9.566;2022-07-23T13:44:47;2.17;;;1.98;;
36839;SDS011;24406;51.640;9.566;2022-07-23T13:49:50;4.78;;;2.10;;
36839;SDS011;24406;51.640;9.566;2022-07-23T13:54:51;3.50;;;2.10;;
36839;SDS011;24406;51.640;9.566;2022-07-23T13:59:53;5.28;;;2.35;;
36839;SDS011;24406;51.640;9.566;2022-07-23T14:04:55;4.50;;;2.33;;
36839;SDS011;24406;51.640;9.566;2022-07-23T14:09:57;5.22;;;2.13;;
36839;SDS011;24406;51.640;9.566;2022-07-23T14:14:59;3.65;;;2.08;;
36839;SDS011;24406;51.640;9.566;2022-07-23T14:20:02;3.58;;;2.38;;
36839;SDS011;24406;51.640;9.566;2022-07-23T14:25:05;3.10;;;2.10;;
36839;SDS011;24406;51.640;9.566;2022-07-23T14:30:09;4.22;;;2.03;;
36839;SDS011;24406;51.640;9.566;2022-07-23T14:35:12;4.18;;;1.80;;
36839;SDS011;24406;51.640;9.566;2022-07-23T14:40:14;2.17;;;1.77;;
36839;SDS011;24406;51.640;9.566;2022-07-23T14:45:15;1.77;;;1.55;;
36839;SDS011;24406;51.640;9.566;2022-07-23T14:50:18;3.25;;;1.88;;
36839;SDS011;24406;51.640;9.566;2022-07-23T14:55:20;1.85;;;1.70;;
36839;SDS011;24406;51.640;9.566;2022-07-23T15:00:21;2.47;;;1.73;;
36839;SDS011;24406;51.640;9.566;2022-07-23T15:05:24;5.32;;;1.80;;
36839;SDS011;24406;51.640;9.566;2022-07-23T15:10:25;2.53;;;1.67;;
36839;SDS011;24406;51.640;9.566;2022-07-23T15:15:27;2.85;;;1.83;;
36839;SDS011;24406;51.640;9.566;2022-07-23T15:20:30;3.33;;;1.88;;
36839;SDS011;24406;51.640;9.566;2022-07-23T15:25:31;2.08;;;1.48;;
36839;SDS011;24406;51.640;9.566;2022-07-23T15:30:33;2.67;;;1.73;;
36839;SDS011;24406;51.640;9.566;2022-07-23T15:35:36;2.55;;;2.15;;
36839;SDS011;24406;51.640;9.566;2022-07-23T15:40:37;1.80;;;1.70;;
36839;SDS011;24406;51.640;9.566;2022-07-23T15:45:39;2.10;;;2.00;;
36839;SDS011;24406;51.640;9.566;2022-07-23T15:50:42;2.33;;;1.85;;
36839;SDS011;24406;51.640;9.566;2022-07-23T15:55:43;3.70;;;1.77;;
36839;SDS011;24406;51.640;9.566;2022-07-23T16:00:46;1.90;;;1.80;;
36839;SDS011;24406;51.640;9.566;2022-07-23T16:05:48;2.97;;;2.20;;
36839;SDS011;24406;51.640;9.566;2022-07-23T16:10:50;5.20;;;2.30;;
36839;SDS011;24406;51.640;9.566;2022-07-23T16:15:53;2.00;;;1.90;;
36839;SDS011;24406;51.640;9.566;2022-07-23T16:20:55;1.90;;;1.80;;
36839;SDS011;24406;51.640;9.566;2022-07-23T16:25:57;1.98;;;1.70;;
36839;SDS011;24406;51.640;9.566;2022-07-23T16:30:58;3.08;;;1.92;;
36839;SDS011;24406;51.640;9.566;2022-07-23T16:36:01;1.92;;;1.80;;
36839;SDS011;24406;51.640;9.566;2022-07-23T16:41:02;1.88;;;1.70;;
36839;SDS011;24406;51.640;9.566;2022-07-23T16:46:04;1.95;;;1.50;;
36839;SDS011;24406;51.640;9.566;2022-07-23T16:51:08;2.78;;;1.75;;
36839;SDS011;24406;51.640;9.566;2022-07-23T16:56:10;1.75;;;1.50;;
36839;SDS011;24406;51.640;9.566;2022-07-23T17:01:11;1.92;;;1.80;;
36839;SDS011;24406;51.640;9.566;2022-07-23T17:06:14;1.77;;;1.65;;
36839;SDS011;24406;51.640;9.566;2022-07-23T17:11:16;1.80;;;1.70;;
36839;SDS011;24406;51.640;9.566;2022-07-23T17:16:17;2.67;;;2.47;;
36839;SDS011;24406;51.640;9.566;2022-07-23T17:21:20;3.15;;;2.30;;
36839;SDS011;24406;51.640;9.566;2022-07-23T17:26:21;2.13;;;1.67;;
36839;SDS011;24406;51.640;9.566;2022-07-23T17:31:23;3.17;;;1.70;;
36839;SDS011;24406;51.640;9.566;2022-07-23T17:36:25;2.95;;;1.67;;
36839;SDS011;24406;51.640;9.566;2022-07-23T17:41:28;5.60;;;1.30;;
36839;SDS011;24406;51.640;9.566;2022-07-23T17:46:30;2.28;;;1.65;;
36839;SDS011;24406;51.640;9.566;2022-07-23T17:51:32;2.53;;;1.60;;
36839;SDS011;24406;51.640;9.566;2022-07-23T17:56:34;2.80;;;1.85;;
36839;SDS011;24406;51.640;9.566;2022-07-23T18:01:35;2.05;;;1.55;;
36839;SDS011;24406;51.640;9.566;2022-07-23T18:06:39;2.50;;;1.50;;
36839;SDS011;24406;51.640;9.566;2022-07-23T18:11:40;2.10;;;1.60;;
36839;SDS011;24406;51.640;9.566;2022-07-23T18:16:42;2.30;;;1.77;;
36839;SDS011;24406;51.640;9.566;2022-07-23T18:21:45;1.73;;;1.63;;
36839;SDS011;24406;51.640;9.566;2022-07-23T18:26:47;2.97;;;1.60;;
36839;SDS011;24406;51.640;9.566;2022-07-23T18:31:48;3.28;;;1.60;;
36839;SDS011;24406;51.640;9.566;2022-07-23T18:36:51;3.13;;;1.67;;
36839;SDS011;24406;51.640;9.566;2022-07-23T18:41:52;1.98;;;1.75;;
36839;SDS011;24406;51.640;9.566;2022-07-23T18:46:54;2.92;;;1.98;;
36839;SDS011;24406;51.640;9.566;2022-07-23T18:51:56;3.47;;;1.75;;
36839;SDS011;24406;51.640;9.566;2022-07-23T18:56:58;5.57;;;2.10;;
36839;SDS011;24406;51.640;9.566;2022-07-23T19:01:59;4.22;;;2.00;;
36839;SDS011;24406;51.640;9.566;2022-07-23T19:07:02;4.80;;;1.83;;
36839;SDS011;24406;51.640;9.566;2022-07-23T19:12:04;5.03;;;2.03;;
36839;SDS011;24406;51.640;9.566;2022-07-23T19:17:06;7.47;;;2.00;;
36839;SDS011;24406;51.640;9.566;2022-07-23T19:22:09;3.28;;;2.22;;
36839;SDS011;24406;51.640;9.566;2022-07-23T19:27:10;2.33;;;2.13;;
36839;SDS011;24406;51.640;9.566;2022-07-23T19:32:11;2.10;;;1.85;;
36839;SDS011;24406;51.640;9.566;2022-07-23T19:37:14;2.03;;;1.83;;
36839;SDS011;24406;51.640;9.566;2022-07-23T19:42:16;2.35;;;2.15;;
36839;SDS011;24406;51.640;9.566;2022-07-23T19:47:18;2.70;;;1.80;;
36839;SDS011;24406;51.640;9.566;2022-07-23T19:52:21;3.88;;;2.05;;
36839;SDS011;24406;51.640;9.566;2022-07-23T19:57:22;2.33;;;2.13;;
36839;SDS011;24406;51.640;9.566;2022-07-23T20:02:23;2.40;;;2.22;;
36839;SDS011;24406;51.640;9.566;2022-07-23T20:07:27;2.42;;;2.30;;
36839;SDS011;24406;51.640;9.566;2022-07-23T20:12:29;3.17;;;2.05;;
36839;SDS011;24406;51.640;9.566;2022-07-23T20:17:30;5.25;;;2.17;;
36839;SDS011;24406;51.640;9.566;2022-07-23T20:22:33;2.63;;;2.35;;
36839;SDS011;24406;51.640;9.566;2022-07-23T20:27:34;2.35;;;2.15;;
36839;SDS011;24406;51.640;9.566;2022-07-23T20:32:36;2.40;;;2.20;;
36839;SDS011;24406;51.640;9.566;2022-07-23T20:37:39;2.85;;;2.40;;
36839;SDS011;24406;51.640;9.566;2022-07-23T20:42:40;3.05;;;1.95;;
36839;SDS011;24406;51.640;9.566;2022-07-23T20:47:42;2.15;;;1.95;;
36839;SDS011;24406;51.640;9.566;2022-07-23T20:52:44;2.17;;;2.08;;
36839;SDS011;24406;51.640;9.566;2022-07-23T20:57:47;4.35;;;3.40;;
36839;SDS011;24406;51.640;9.566;2022-07-23T21:02:48;4.47;;;2.88;;
36839;SDS011;24406;51.640;9.566;2022-07-23T21:07:51;5.03;;;2.30;;
36839;SDS011;24406;51.640;9.566;2022-07-23T21:12:53;2.70;;;2.50;;
36839;SDS011;24406;51.640;9.566;2022-07-23T21:17:54;2.42;;;2.30;;
36839;SDS011;24406;51.640;9.566;2022-07-23T21:22:57;3.20;;;2.17;;
36839;SDS011;24406;51.640;9.566;2022-07-23T21:27:59;4.47;;;2.67;;
36839;SDS011;24406;51.640;9.566;2022-07-23T21:33:00;3.55;;;2.40;;
36839;SDS011;24406;51.640;9.566;2022-07-23T21:38:03;2.60;;;2.33;;
36839;SDS011;24406;51.640;9.566;2022-07-23T21:43:04;3.08;;;2.17;;
36839;SDS011;24406;51.640;9.566;2022-07-23T21:48:06;2.58;;;2.38;;
36839;SDS011;24406;51.640;9.566;2022-07-23T21:53:09;2.70;;;2.50;;
36839;SDS011;24406;51.640;9.566;2022-07-23T21:58:10;4.43;;;2.70;;
36839;SDS011;24406;51.640;9.566;2022-07-23T22:03:12;2.55;;;2.25;;
36839;SDS011;24406;51.640;9.566;2022-07-23T22:08:14;4.97;;;2.83;;
36839;SDS011;24406;51.640;9.566;2022-07-23T22:13:16;5.55;;;2.90;;
36839;SDS011;24406;51.640;9.566;2022-07-23T22:18:17;4.22;;;2.88;;
36839;SDS011;24406;51.640;9.566;2022-07-23T22:23:20;4.97;;;2.40;;
36839;SDS011;24406;51.640;9.566;2022-07-23T22:28:22;3.13;;;2.15;;
36839;SDS011;24406;51.640;9.566;2022-07-23T22:33:23;4.05;;;2.25;;
36839;SDS011;24406;51.640;9.566;2022-07-23T22:38:26;2.55;;;2.35;;
36839;SDS011;24406;51.640;9.566;2022-07-23T22:43:27;2.50;;;2.30;;
36839;SDS011;24406;51.640;9.566;2022-07-23T22:48:29;3.45;;;2.63;;
36839;SDS011;24406;51.640;9.566;2022-07-23T22:53:31;2.72;;;2.53;;
36839;SDS011;24406;51.640;9.566;2022-07-23T22:58:33;3.03;;;2.72;;
36839;SDS011;24406;51.640;9.566;2022-07-23T23:03:34;2.88;;;2.67;;
36839;SDS011;24406;51.640;9.566;2022-07-23T23:08:37;6.95;;;2.70;;
36839;SDS011;24406;51.640;9.566;2022-07-23T23:13:38;3.13;;;2.83;;
36839;SDS011;24406;51.640;9.566;2022-07-23T23:18:40;2.78;;;2.58;;
36839;SDS011;24406;51.640;9.566;2022-07-23T23:23:42;4.90;;;2.58;;
36839;SDS011;24406;51.640;9.566;2022-07-23T23:28:45;3.20;;;2.60;;
36839;SDS011;24406;51.640;9.566;2022-07-23T23:33:47;3.10;;;2.80;;
36839;SDS011;24406;51.640;9.566;2022-07-23T23:38:50;3.15;;;2.40;;
36839;SDS011;24406;51.640;9.566;2022-07-23T23:43:51;2.53;;;2.33;;
36839;SDS011;24406;51.640;9.566;2022-07-23T23:48:53;2.45;;;2.25;;
36839;SDS011;24406;51.640;9.566;2022-07-23T23:53:56;3.28;;;2.72;;
36839;SDS011;24406;51.640;9.566;2022-07-23T23:58:57;2.83;;;2.63;;
